createdAt,value
2022-10-04T00:01:50.531Z,10.70
2022-10-04T00:04:25.037Z,10.70
2022-10-04T00:06:59.104Z,10.70
2022-10-04T00:09:33.368Z,10.70
2022-10-04T00:12:03.020Z,10.70
2022-10-04T00:14:34.006Z,10.70
2022-10-04T00:17:11.559Z,10.60
2022-10-04T00:19:43.363Z,10.50
2022-10-04T00:22:18.384Z,10.50
2022-10-04T00:25:22.792Z,10.50
2022-10-04T00:28:18.326Z,10.50
2022-10-04T00:30:46.874Z,10.60
2022-10-04T00:33:36.075Z,10.60
2022-10-04T00:36:45.824Z,10.50
2022-10-04T00:39:26.144Z,10.50
2022-10-04T00:42:03.294Z,10.40
2022-10-04T00:44:38.499Z,10.50
2022-10-04T00:47:22.993Z,10.40
2022-10-04T00:49:56.025Z,10.30
2022-10-04T00:52:29.187Z,10.30
2022-10-04T00:55:03.921Z,10.30
2022-10-04T00:57:36.051Z,10.40
2022-10-04T01:00:09.334Z,10.30
2022-10-04T01:02:46.339Z,10.40
2022-10-04T01:05:19.471Z,10.40
2022-10-04T01:07:50.724Z,10.40
2022-10-04T01:10:26.159Z,10.50
2022-10-04T01:12:57.600Z,10.60
2022-10-04T01:15:35.625Z,10.50
2022-10-04T01:18:13.054Z,10.40
2022-10-04T01:20:50.160Z,10.40
2022-10-04T01:23:35.878Z,10.40
2022-10-04T01:26:05.851Z,10.40
2022-10-04T01:28:35.515Z,10.40
2022-10-04T01:31:03.764Z,10.40
2022-10-04T01:33:31.840Z,10.40
2022-10-04T01:35:59.942Z,10.40
2022-10-04T01:38:27.980Z,10.40
2022-10-04T01:41:00.432Z,10.40
2022-10-04T01:43:34.016Z,10.50
2022-10-04T01:46:06.926Z,10.50
2022-10-04T01:48:38.550Z,10.50
2022-10-04T01:51:14.243Z,10.50
2022-10-04T01:53:47.866Z,10.50
2022-10-04T01:56:20.638Z,10.40
2022-10-04T01:58:51.293Z,10.40
2022-10-04T02:01:24.901Z,10.40
2022-10-04T02:03:59.038Z,10.30
2022-10-04T02:06:27.246Z,10.30
2022-10-04T02:08:57.670Z,10.30
2022-10-04T02:11:31.233Z,10.30
2022-10-04T02:14:00.420Z,10.30
2022-10-04T02:16:28.663Z,10.30
2022-10-04T02:18:57.416Z,10.20
2022-10-04T02:21:25.677Z,10.30
2022-10-04T02:23:55.473Z,10.20
2022-10-04T02:26:23.530Z,10.30
2022-10-04T02:28:52.957Z,10.20
2022-10-04T02:31:41.416Z,10.20
2022-10-04T02:34:10.188Z,10.30
2022-10-04T02:36:40.791Z,10.30
2022-10-04T02:39:15.842Z,10.30
2022-10-04T02:41:48.610Z,10.30
2022-10-04T02:44:22.642Z,10.30
2022-10-04T02:46:54.730Z,10.30
2022-10-04T02:49:31.936Z,10.20
2022-10-04T02:52:07.009Z,10.20
2022-10-04T02:54:42.047Z,10.20
2022-10-04T02:57:17.142Z,10.30
2022-10-04T02:59:46.926Z,10.20
2022-10-04T03:02:29.824Z,10.30
2022-10-04T03:05:04.768Z,10.30
2022-10-04T03:07:33.713Z,10.30
2022-10-04T03:10:02.809Z,10.30
2022-10-04T03:12:31.759Z,10.20
2022-10-04T03:15:01.206Z,10.30
2022-10-04T03:17:29.654Z,10.20
2022-10-04T03:19:58.334Z,10.20
2022-10-04T03:22:26.467Z,10.10
2022-10-04T03:24:58.198Z,10.00
2022-10-04T03:27:29.790Z,9.90
2022-10-04T03:29:59.498Z,9.90
2022-10-04T03:32:30.553Z,9.80
2022-10-04T03:35:00.235Z,9.80
2022-10-04T03:37:32.165Z,9.80
2022-10-04T03:40:01.705Z,9.80
2022-10-04T03:42:32.594Z,9.80
2022-10-04T03:45:03.721Z,9.80
2022-10-04T03:47:36.532Z,9.70
2022-10-04T03:50:23.833Z,9.70
2022-10-04T03:52:56.031Z,9.70
2022-10-04T03:55:31.453Z,9.70
2022-10-04T03:58:00.535Z,9.70
2022-10-04T04:00:28.789Z,9.70
2022-10-04T04:03:01.750Z,9.60
2022-10-04T04:05:32.624Z,9.60
2022-10-04T04:08:08.132Z,9.60
2022-10-04T04:10:39.538Z,9.60
2022-10-04T04:13:25.011Z,9.60
2022-10-04T04:15:56.515Z,9.60
2022-10-04T04:18:30.126Z,9.60
2022-10-04T04:21:00.372Z,9.50
2022-10-04T04:23:32.801Z,9.50
2022-10-04T04:26:16.073Z,9.40
2022-10-04T04:28:49.382Z,9.50
2022-10-04T04:31:23.034Z,9.50
2022-10-04T04:33:59.286Z,9.50
2022-10-04T04:36:28.568Z,9.50
2022-10-04T04:39:25.927Z,9.50
2022-10-04T04:41:54.000Z,9.40
2022-10-04T04:44:28.991Z,9.40
2022-10-04T04:47:00.414Z,9.30
2022-10-04T04:49:32.563Z,9.40
2022-10-04T04:52:00.976Z,9.40
2022-10-04T04:54:29.125Z,9.30
2022-10-04T04:56:58.036Z,9.40
2022-10-04T04:59:28.112Z,9.40
2022-10-04T05:01:56.169Z,9.40
2022-10-04T05:04:24.934Z,9.30
2022-10-04T05:07:03.974Z,9.30
2022-10-04T05:09:34.274Z,9.20
2022-10-04T05:12:10.668Z,9.20
2022-10-04T05:14:42.027Z,9.20
2022-10-04T05:17:20.076Z,9.30
2022-10-04T05:19:48.237Z,9.30
2022-10-04T05:22:21.810Z,9.20
2022-10-04T05:24:53.168Z,9.30
2022-10-04T05:27:28.037Z,9.20
2022-10-04T05:30:03.383Z,9.20
2022-10-04T05:37:09.947Z,9.10
2022-10-04T05:39:44.970Z,9.10
2022-10-04T05:42:21.123Z,9.00
2022-10-04T05:45:02.862Z,9.00
2022-10-04T05:47:32.118Z,9.00
2022-10-04T05:50:01.828Z,9.00
2022-10-04T05:52:33.278Z,9.00
2022-10-04T05:55:19.426Z,9.00
2022-10-04T05:58:10.233Z,9.10
2022-10-04T06:00:46.614Z,9.00
2022-10-04T06:03:41.471Z,9.10
2022-10-04T06:06:17.445Z,9.10
2022-10-04T06:08:57.289Z,9.10
2022-10-04T06:11:40.595Z,9.20
2022-10-04T06:14:38.970Z,9.20
2022-10-04T06:17:38.550Z,9.20
2022-10-04T06:20:36.297Z,9.30
2022-10-04T06:23:13.432Z,9.40
2022-10-04T06:25:47.108Z,9.40
2022-10-04T06:28:21.574Z,9.50
2022-10-04T06:31:07.828Z,9.70
2022-10-04T06:33:56.074Z,9.60
2022-10-04T06:36:44.546Z,9.70
2022-10-04T06:39:26.528Z,9.60
2022-10-04T06:42:35.279Z,9.70
2022-10-04T06:45:32.750Z,9.70
2022-10-04T06:48:24.150Z,9.80
2022-10-04T06:51:03.262Z,10.00
2022-10-04T06:53:51.735Z,10.00
2022-10-04T06:56:39.972Z,10.10
2022-10-04T06:59:43.331Z,10.10
2022-10-04T07:02:23.306Z,10.10
2022-10-04T07:05:10.033Z,10.20
2022-10-04T07:07:48.524Z,10.20
2022-10-04T07:10:34.197Z,10.10
2022-10-04T07:13:35.975Z,10.20
2022-10-04T07:16:10.147Z,10.20
2022-10-04T07:18:56.876Z,10.20
2022-10-04T07:21:28.729Z,10.20
2022-10-04T07:24:01.692Z,10.20
2022-10-04T07:26:37.311Z,10.20
2022-10-04T07:29:23.242Z,10.20
2022-10-04T07:32:03.099Z,10.20
2022-10-04T07:34:37.722Z,10.30
2022-10-04T07:37:12.642Z,10.40
2022-10-04T07:39:50.332Z,10.40
2022-10-04T07:42:24.623Z,10.50
2022-10-04T07:45:05.932Z,10.60
2022-10-04T07:47:34.105Z,10.80
2022-10-04T07:50:24.733Z,11.00
2022-10-04T07:52:57.623Z,11.00
2022-10-04T07:55:31.586Z,11.00
2022-10-04T07:58:23.177Z,11.00
2022-10-04T08:00:56.031Z,11.10
2022-10-04T08:03:48.815Z,11.10
2022-10-04T08:06:23.139Z,11.20
2022-10-04T08:09:17.690Z,11.40
2022-10-04T08:11:53.955Z,11.60
2022-10-04T08:14:38.274Z,11.80
2022-10-04T08:17:18.923Z,11.90
2022-10-04T08:19:56.558Z,11.80
2022-10-04T08:22:35.375Z,11.90
2022-10-04T08:25:12.573Z,12.10
2022-10-04T08:28:07.221Z,12.30
2022-10-04T08:30:52.858Z,12.40
2022-10-04T08:33:30.494Z,12.50
2022-10-04T08:36:09.387Z,12.60
2022-10-04T08:38:45.326Z,12.70
2022-10-04T08:41:46.708Z,12.90
2022-10-04T08:44:56.838Z,13.00
2022-10-04T08:47:54.537Z,13.30
2022-10-04T08:50:54.984Z,13.40
2022-10-04T08:54:01.988Z,13.50
2022-10-04T08:56:58.800Z,13.50
2022-10-04T09:00:07.263Z,13.60
2022-10-04T09:03:13.820Z,13.70
2022-10-04T09:06:16.019Z,13.90
2022-10-04T09:09:16.500Z,14.00
2022-10-04T09:12:03.593Z,14.20
2022-10-04T09:15:03.069Z,14.40
2022-10-04T09:17:41.994Z,14.50
2022-10-04T09:20:39.324Z,14.80
2022-10-04T09:23:23.056Z,15.00
2022-10-04T09:26:01.141Z,15.00
2022-10-04T09:28:50.001Z,15.10
2022-10-04T09:31:32.107Z,15.10
2022-10-04T09:34:22.118Z,15.30
2022-10-04T09:37:15.393Z,15.40
2022-10-04T09:40:06.533Z,15.30
2022-10-04T09:43:02.020Z,15.50
2022-10-04T09:45:49.176Z,15.60
2022-10-04T09:48:27.071Z,15.70
2022-10-04T09:51:25.370Z,16.10
2022-10-04T09:54:11.902Z,16.20
2022-10-04T09:57:11.857Z,16.50
2022-10-04T10:00:11.845Z,16.60
2022-10-04T10:03:15.891Z,16.60
2022-10-04T10:06:25.965Z,16.80
2022-10-04T10:09:13.620Z,17.10
2022-10-04T10:12:07.181Z,17.50
2022-10-04T10:15:01.864Z,17.90
2022-10-04T10:17:40.110Z,19.00
2022-10-04T10:20:36.353Z,19.80
2022-10-04T10:23:35.257Z,20.80
2022-10-04T10:26:32.857Z,21.10
2022-10-04T10:29:24.071Z,20.90
2022-10-04T10:32:10.376Z,21.10
2022-10-04T10:35:06.268Z,21.10
2022-10-04T10:37:49.833Z,21.00
2022-10-04T10:40:33.038Z,20.90
2022-10-04T10:43:30.755Z,21.50
2022-10-04T10:46:15.435Z,21.40
2022-10-04T10:49:06.473Z,20.90
2022-10-04T10:52:06.132Z,20.80
2022-10-04T10:54:57.607Z,21.50
2022-10-04T10:57:48.410Z,20.70
2022-10-04T11:00:22.105Z,21.00
2022-10-04T11:03:32.285Z,20.80
2022-10-04T11:06:47.531Z,20.70
2022-10-04T11:09:30.598Z,20.60
2022-10-04T11:12:24.038Z,21.30
2022-10-04T11:15:07.134Z,21.60
2022-10-04T11:18:09.194Z,21.70
2022-10-04T11:21:06.164Z,22.00
2022-10-04T11:24:21.956Z,21.60
2022-10-04T11:27:02.314Z,21.30
2022-10-04T11:29:48.771Z,21.80
2022-10-04T11:32:59.491Z,22.10
2022-10-04T11:35:46.931Z,21.70
2022-10-04T11:38:29.903Z,22.10
2022-10-04T11:41:14.623Z,22.50
2022-10-04T11:44:07.041Z,22.10
2022-10-04T11:46:46.253Z,22.50
2022-10-04T11:49:35.955Z,22.10
2022-10-04T11:52:31.714Z,22.20
2022-10-04T11:55:46.782Z,22.40
2022-10-04T11:58:21.615Z,22.60
2022-10-04T12:01:14.073Z,22.60
2022-10-04T12:04:24.076Z,23.10
2022-10-04T12:07:13.705Z,23.10
2022-10-04T12:09:47.806Z,22.40
2022-10-04T12:12:49.891Z,22.60
2022-10-04T12:15:40.431Z,22.60
2022-10-04T12:18:56.182Z,22.30
2022-10-04T12:21:42.041Z,22.50
2022-10-04T12:24:22.065Z,22.00
2022-10-04T12:27:13.685Z,22.30
2022-10-04T12:30:19.450Z,22.80
2022-10-04T12:32:58.215Z,22.80
2022-10-04T12:35:37.869Z,22.50
2022-10-04T12:38:40.307Z,22.80
2022-10-04T12:41:18.629Z,22.70
2022-10-04T12:43:52.833Z,21.90
2022-10-04T12:46:33.185Z,21.70
2022-10-04T12:49:15.342Z,21.50
2022-10-04T12:51:52.741Z,20.90
2022-10-04T12:54:40.343Z,20.90
2022-10-04T12:57:42.516Z,21.10
2022-10-04T13:00:20.664Z,20.50
2022-10-04T13:03:03.446Z,21.30
2022-10-04T13:05:37.740Z,21.80
2022-10-04T13:08:30.388Z,22.10
2022-10-04T13:11:22.259Z,21.70
2022-10-04T13:14:19.097Z,21.40
2022-10-04T13:19:53.915Z,21.30
2022-10-04T13:22:55.811Z,21.60
2022-10-04T13:25:40.803Z,21.90
2022-10-04T13:28:20.667Z,21.80
2022-10-04T13:30:55.018Z,21.90
2022-10-04T13:33:30.045Z,22.00
2022-10-04T13:36:06.712Z,21.40
2022-10-04T13:38:56.118Z,21.20
2022-10-04T13:41:43.512Z,20.60
2022-10-04T13:44:30.529Z,20.40
2022-10-04T13:47:33.737Z,20.40
2022-10-04T13:50:20.494Z,20.50
2022-10-04T13:53:13.217Z,20.20
2022-10-04T13:56:05.389Z,20.00
2022-10-04T13:58:46.496Z,20.10
2022-10-04T14:01:49.173Z,20.00
2022-10-04T14:04:42.672Z,19.80
2022-10-04T14:07:38.134Z,19.90
2022-10-04T14:10:35.093Z,20.10
2022-10-04T14:13:36.345Z,20.40
2022-10-04T14:16:34.060Z,20.50
2022-10-04T14:19:40.819Z,20.30
2022-10-04T14:22:49.964Z,20.40
2022-10-04T14:25:54.902Z,20.10
2022-10-04T14:28:51.422Z,20.00
2022-10-04T14:32:05.965Z,20.10
2022-10-04T14:34:57.098Z,20.00
2022-10-04T14:37:58.261Z,20.00
2022-10-04T14:40:52.509Z,20.00
2022-10-04T14:44:02.446Z,20.00
2022-10-04T14:46:42.143Z,19.90
2022-10-04T14:49:22.087Z,19.90
2022-10-04T14:52:08.284Z,20.00
2022-10-04T14:54:46.422Z,20.00
2022-10-04T14:57:22.740Z,20.00
2022-10-04T15:00:11.029Z,20.00
2022-10-04T15:03:13.583Z,20.00
2022-10-04T15:06:06.760Z,20.20
2022-10-04T15:09:03.095Z,20.00
2022-10-04T15:11:41.686Z,19.80
2022-10-04T15:14:31.671Z,19.90
2022-10-04T15:17:02.085Z,19.70
2022-10-04T15:19:36.668Z,19.60
2022-10-04T15:22:14.965Z,19.40
2022-10-04T15:24:49.162Z,19.40
2022-10-04T15:27:46.585Z,19.40
2022-10-04T15:30:22.944Z,19.50
2022-10-04T15:33:00.758Z,19.50
2022-10-04T15:35:38.345Z,19.40
2022-10-04T15:38:19.877Z,19.50
2022-10-04T15:41:03.024Z,19.50
2022-10-04T15:43:36.702Z,19.50
2022-10-04T15:46:39.631Z,19.40
2022-10-04T15:49:24.877Z,19.30
2022-10-04T15:52:49.006Z,19.20
2022-10-04T15:55:21.803Z,19.00
2022-10-04T15:58:18.134Z,18.90
2022-10-04T16:01:03.859Z,18.90
2022-10-04T16:03:42.382Z,18.80
2022-10-04T16:06:19.820Z,18.80
2022-10-04T16:09:03.764Z,18.70
2022-10-04T16:11:45.320Z,18.60
2022-10-04T16:14:48.006Z,18.50
2022-10-04T16:17:53.132Z,18.40
2022-10-04T16:21:06.075Z,18.20
2022-10-04T16:23:36.181Z,18.10
2022-10-04T16:26:07.528Z,18.00
2022-10-04T16:28:59.005Z,17.80
2022-10-04T16:31:50.582Z,17.60
2022-10-04T16:34:41.485Z,17.40
2022-10-04T16:37:29.142Z,17.30
2022-10-04T16:40:00.747Z,17.40
2022-10-04T16:42:39.950Z,17.30
2022-10-04T16:45:49.525Z,17.30
2022-10-04T16:48:32.975Z,17.20
2022-10-04T16:51:32.570Z,16.90
2022-10-04T16:54:10.430Z,16.70
2022-10-04T16:57:12.143Z,16.60
2022-10-04T16:59:56.862Z,16.30
2022-10-04T17:02:55.034Z,16.10
2022-10-04T17:05:37.034Z,16.10
2022-10-04T17:08:49.734Z,15.90
2022-10-04T17:11:41.241Z,15.80
2022-10-04T17:14:41.326Z,15.60
2022-10-04T17:18:01.068Z,15.50
2022-10-04T17:20:47.940Z,15.30
2022-10-04T17:23:44.647Z,15.20
2022-10-04T17:26:22.426Z,14.90
2022-10-04T17:28:56.597Z,14.80
2022-10-04T17:31:33.428Z,14.70
2022-10-04T17:34:10.300Z,14.70
2022-10-04T17:36:44.417Z,14.60
2022-10-04T17:39:41.014Z,14.60
2022-10-04T17:42:30.226Z,14.60
2022-10-04T17:45:15.288Z,14.50
2022-10-04T17:48:08.213Z,14.50
2022-10-04T17:51:00.759Z,14.50
2022-10-04T17:53:49.971Z,14.60
2022-10-04T17:56:31.084Z,14.50
2022-10-04T17:59:00.466Z,14.60
2022-10-04T18:01:32.983Z,14.50
2022-10-04T18:04:09.510Z,14.40
2022-10-04T18:06:42.867Z,14.40
2022-10-04T18:09:23.161Z,14.30
2022-10-04T18:11:53.428Z,14.40
2022-10-04T18:14:47.134Z,14.40
2022-10-04T18:17:27.271Z,14.20
2022-10-04T18:20:08.647Z,14.10
2022-10-04T18:22:47.783Z,14.10
2022-10-04T18:25:23.232Z,14.00
2022-10-04T18:28:01.007Z,13.90
2022-10-04T18:30:29.186Z,13.80
2022-10-04T18:32:58.282Z,13.80
2022-10-04T18:35:28.389Z,13.70
2022-10-04T18:37:59.738Z,13.70
2022-10-04T18:40:35.299Z,13.60
2022-10-04T18:43:03.402Z,13.60
2022-10-04T18:45:33.646Z,13.60
2022-10-04T18:48:03.637Z,13.70
2022-10-04T18:50:37.039Z,13.70
2022-10-04T18:53:32.414Z,13.60
2022-10-04T18:56:04.510Z,13.50
2022-10-04T18:59:05.647Z,13.60
2022-10-04T19:02:03.174Z,13.60
2022-10-04T19:04:45.022Z,13.70
2022-10-04T19:07:16.370Z,13.80
2022-10-04T19:10:22.152Z,13.80
2022-10-04T19:13:12.466Z,13.80
2022-10-04T19:15:50.435Z,13.70
2022-10-04T19:18:33.770Z,13.80
2022-10-04T19:21:08.540Z,13.80
2022-10-04T19:23:49.282Z,13.90
2022-10-04T19:26:33.218Z,13.90
2022-10-04T19:29:11.376Z,13.90
2022-10-04T19:31:49.157Z,14.00
2022-10-04T19:34:22.624Z,14.00
2022-10-04T19:36:57.865Z,14.00
2022-10-04T19:39:37.483Z,13.90
2022-10-04T19:42:11.002Z,13.80
2022-10-04T19:45:15.302Z,13.80
2022-10-04T19:47:50.299Z,13.80
2022-10-04T19:50:22.098Z,13.50
2022-10-04T19:52:54.342Z,13.50
2022-10-04T19:55:27.513Z,13.60
2022-10-04T19:58:03.478Z,13.50
2022-10-04T20:00:35.671Z,13.40
2022-10-04T20:03:10.568Z,13.20
2022-10-04T20:05:44.536Z,13.20
2022-10-04T20:08:13.672Z,13.10
2022-10-04T20:10:42.893Z,13.00
2022-10-04T20:13:24.034Z,13.00
2022-10-04T20:16:02.431Z,13.00
2022-10-04T20:19:09.649Z,13.00
2022-10-04T20:21:38.200Z,13.00
2022-10-04T20:24:17.259Z,13.00
2022-10-04T20:27:04.363Z,13.00
2022-10-04T20:30:01.679Z,13.00
2022-10-04T20:33:01.852Z,13.10
2022-10-04T20:36:12.313Z,13.20
2022-10-04T20:38:59.390Z,13.10
2022-10-04T20:42:22.306Z,13.10
2022-10-04T20:44:56.698Z,12.90
2022-10-04T20:47:46.335Z,12.80
2022-10-04T20:50:21.117Z,12.80
2022-10-04T20:52:52.666Z,12.80
2022-10-04T20:55:28.256Z,12.90
2022-10-04T20:57:59.447Z,13.00
2022-10-04T21:00:33.608Z,13.00
2022-10-04T21:03:16.831Z,13.10
2022-10-04T21:05:49.889Z,13.10
2022-10-04T21:08:25.843Z,13.10
2022-10-04T21:11:19.775Z,13.10
2022-10-04T21:14:07.254Z,13.10
2022-10-04T21:16:37.874Z,13.20
2022-10-04T21:19:31.285Z,13.20
2022-10-04T21:22:00.587Z,13.30
2022-10-04T21:24:36.161Z,13.30
2022-10-04T21:27:07.029Z,13.30
2022-10-04T21:29:36.230Z,13.30
2022-10-04T21:32:04.359Z,13.30
2022-10-04T21:34:52.509Z,13.30
2022-10-04T21:37:20.866Z,13.30
2022-10-04T21:39:48.858Z,13.30
2022-10-04T21:42:18.376Z,13.30
2022-10-04T21:44:46.367Z,13.20
2022-10-04T21:47:14.443Z,13.20
2022-10-04T21:49:42.778Z,13.20
2022-10-04T21:52:10.790Z,13.20
2022-10-04T21:54:38.741Z,13.20
2022-10-04T21:57:06.732Z,13.20
2022-10-04T21:59:36.047Z,13.20
2022-10-04T22:02:04.092Z,13.20
2022-10-04T22:04:41.537Z,13.30
2022-10-04T22:07:10.510Z,13.20
2022-10-04T22:09:38.605Z,13.10
2022-10-04T22:12:06.755Z,13.10
2022-10-04T22:14:36.145Z,13.00
2022-10-04T22:17:04.288Z,13.00
2022-10-04T22:19:32.373Z,12.90
2022-10-04T22:22:00.406Z,12.90
2022-10-04T22:24:28.429Z,12.80
2022-10-04T22:26:58.115Z,12.80
2022-10-04T22:29:28.110Z,12.80
2022-10-04T22:31:57.505Z,12.80
2022-10-04T22:34:25.571Z,12.90
2022-10-04T22:36:53.816Z,12.90
2022-10-04T22:39:22.799Z,12.90
2022-10-04T22:41:54.799Z,12.90
2022-10-04T22:44:25.194Z,12.90
2022-10-04T22:46:55.494Z,12.80
2022-10-04T22:49:26.574Z,12.80
2022-10-04T22:51:57.092Z,12.80
2022-10-04T22:54:27.444Z,12.80
2022-10-04T22:57:01.675Z,12.80
2022-10-04T22:59:35.601Z,12.80
2022-10-04T23:02:10.908Z,12.80
2022-10-04T23:04:42.023Z,12.80
2022-10-04T23:07:10.067Z,12.70
2022-10-04T23:09:38.048Z,12.70
2022-10-04T23:12:09.518Z,12.60
2022-10-04T23:14:38.255Z,12.50
2022-10-04T23:17:21.400Z,12.40
2022-10-04T23:19:52.990Z,12.30
2022-10-04T23:22:25.718Z,12.20
2022-10-04T23:24:53.954Z,12.20
2022-10-04T23:27:22.110Z,12.10
2022-10-04T23:29:54.376Z,12.10
2022-10-04T23:32:22.430Z,12.10
2022-10-04T23:34:56.452Z,12.00
2022-10-04T23:37:28.541Z,12.00
2022-10-04T23:39:56.588Z,11.90
2022-10-04T23:43:21.583Z,11.90
2022-10-04T23:45:49.689Z,11.90
2022-10-04T23:48:22.731Z,11.90
2022-10-04T23:50:54.015Z,11.90
2022-10-04T23:53:26.664Z,11.80
2022-10-04T23:55:56.045Z,11.80
2022-10-04T23:58:26.755Z,11.70
